Portada
METAR-TAF:

METAR-TAF

Aeroports :

Mannheim, Alemanya

latitud: 49-28-21N, longitud: 008-30-56E, altitud: 100 m

Observació

L'informe es va fer fa 3 hores i 20 minuts, a les 20:50 UTC
Vent 5 kt del Sud/Sud-Est, variant entre Est/Sud-Est i Sud/Sud-Oest
Temperatura 0°C
Humitat 100%
Pressió 1022 hPa
Visibilitat: 2000 m
Cel cobert a una alçada de 100 ft
boirina

METAR: EDFM 052050Z 16005KT 120V200 2000 BR OVC001 M00/M00 Q1022

Hora: 01:10 (00:10 UTC)

Pronòstic

L'informe es va fer fa 7 hores i 10 minuts, a les 17:00 UTC
Pronòstic vàlid del 05 a les 18 UTC al 05 a les 21 UTC
Vent 5 kt del Sud/Sud-Est
Visibilitat: 1500 m
Cel cobert a una alçada de 200 ft
boirina
Temporalment
l' 05 a les 18 UTC al 05 a les 21 UTC
Visibilitat: 0500 m
a una alçada de 100 ft
boira gebradora

TAF: EDFM 051700Z 0518/0521 16005KT 1500 BR OVC002 TEMPO 0518/0521 0500 FZFG VV001

Observacions i pronòstics meteorològics de més de 4000 aeroports (METAR i TAF).

Les estacions disponibles són els punts grocs i vermells al mapa.

Posi el ratolí al punt desitjat per veure el nom de l'estació.

Feu clic per veure les observacions i els pronòstics meteorològics.

Per canviar el mapa: feu clic els botons verds amb una creu de color negre per apropar; al botó verd amb un guió per allunyar la imatge; o en les fletxes verdes per a mapes adjacents.


METAR-TAF: